Nearby METAR Reports

 

EGVN - Brize Norton Raf, United Kingdom
Distance from station: SSE 20mi, 32km
Updated: 14/12/2017 21:50
Partly cloudy
Partly cloudy
 Wind from W
Wind: W 5 mph , 7 km/h
Temperature: 2°C
Wind Chill: 0°C
Dew Point: 1°C
Humidity: 93%
Barometer: 989 hPa
Clouds: Partly cloudy
Visibility: 6 miles , 10 km
Cloud details: Few Clouds 732 m
Partly cloudy 5182 m
2017/12/14 21:50 EGVN 142150Z 27004KT 9999 FEW024 SCT170 02/01 Q0989 BLU NOSIG
EGTK - Oxford, United Kingdom
Distance from station: SE 22mi, 35km
Updated: 14/12/2017 22:20
Clear
Clear
 Wind from W
Wind: W 9 mph , 15 km/h
Temperature: 2°C
Wind Chill: -2°C
Dew Point: 1°C
Humidity: 93%
Barometer: 989 hPa
Summary: Clear
Visibility: greater than 7 miles , 10 km
2017/12/14 22:20 EGTK 142220Z 26008KT CAVOK 02/01 Q0989
 
EGBJ - Staverton (priva, United Kingdom
Distance from station: WSW 23mi, 36km
Updated: 14/12/2017 19:20
NOT Current
Few Clouds
Few Clouds
 Wind from W
Wind: W 6 mph , 9 km/h
Temperature: 5°C
Wind Chill: 3°C
Dew Point: 3°C
Humidity: 87%
Barometer: 988 hPa
Clouds: Few Clouds
Visibility: 6 miles , 10 km
Cloud details: Few Clouds 1158 m
2017/12/14 19:20 EGBJ 141920Z 27005KT 9999 FEW038 05/03 Q0988
EGVA - Fairford Raf, United Kingdom
Distance from station: S 27mi, 43km
Updated: 14/12/2017 21:56
Clear
Clear
 Wind from W
Wind: W 9 mph , 15 km/h
Clouds: Clear
2017/12/14 21:56 EGVA 142156Z AUTO 28008KT M M CLR M A2922 RMK AO2 SLPNO ALSTG ESTMD RVRNO $
 
EGBB - Birmingham Airpo, United Kingdom
Distance from station: N 29mi, 46km
Updated: 14/12/2017 22:20
Partly cloudy
Partly cloudy
 Wind from SSW
Wind: SSW 7 mph , 11 km/h
Temperature: 3°C
Wind Chill: 0°C
Dew Point: 1°C
Humidity: 87%
Barometer: 988 hPa
Clouds: Partly cloudy
Visibility: 6 miles , 10 km
Cloud details: Partly cloudy 1219 m
2017/12/14 22:20 EGBB 142220Z 21006KT 180V250 9999 SCT040 03/01 Q0988
EGUB - Benson Raf, United Kingdom
Distance from station: SE 40mi, 65km
Updated: 14/12/2017 21:50
Mostly cloudy
Mostly cloudy
 Wind from W
Wind: W 8 mph , 13 km/h
Temperature: 4°C
Wind Chill: 1°C
Dew Point: 2°C
Humidity: 87%
Barometer: 989 hPa
Clouds: Mostly cloudy
Visibility: 6 miles , 10 km
Cloud details: Few Clouds 518 m
Mostly cloudy 732 m
2017/12/14 21:50 EGUB 142150Z 26007KT 9999 FEW017 BKN024 04/02 Q0989 WHT
 
EGTC - Cranfield, United Kingdom
Distance from station: E 46mi, 74km
Updated: 14/12/2017 17:50
NOT Current
Few Clouds
Few Clouds
 Wind from SW
Wind: SW 13 mph , 20 km/h
Temperature: 2°C
Wind Chill: -3°C
Dew Point: 1°C
Humidity: 93%
Barometer: 986 hPa
Clouds: Few Clouds
Visibility: 6 miles , 10 km
Cloud details: Few Clouds 1189 m
2017/12/14 17:50 EGTC 141750Z 22011KT 9999 FEW039 02/01 Q0986
EGWC - Cosford Raf, United Kingdom
Distance from station: NNW 46mi, 75km
Updated: 14/12/2017 14:50
NOT Current
Partly cloudy
Partly cloudy
 Wind from SW
Wind: SW 10 mph , 17 km/h
Temperature: 5°C
Wind Chill: 2°C
Dew Point: 0°C
Humidity: 70%
Barometer: 986 hPa
Clouds: Partly cloudy
Visibility: 6 miles , 10 km
Cloud details: Partly cloudy 701 m
2017/12/14 14:50 EGWC 141450Z 22009KT 9999 SCT023 05/00 Q0986 WHT